Portada
METAR-TAF:

METAR-TAF

Aeroports :

Ranchi, Índia

latitud: 23-18-51N, longitud: 85-19-18E, altitud: 646 m

Observació

L'informe es va fer fa 28 minuts, a les 02:00 UTC
Vent calma
Temperatura 25°C
Humitat 89%
Pressió 1011 hPa
Visibilitat: 4000 m
calitja

METAR: VERC 250200Z 00000KT 4000 HZ NSC 25/23 Q1011 NOSIG

Hora: 07:58 (02:28 UTC)

Pronòstic

L'informe es va fer fa 3 hores i 28 minuts, a les 23:00 UTC
Pronòstic vàlid del 25 a les 00 UTC al 25 a les 09 UTC
Vent 4 kt del Sud/Sud-Est
Visibilitat: 2000 m
Núvols disperses a una alçada de 2000 ft
Núvols disperses a una alçada de 10000 ft
boirina
Evolucionant progressivament
l' 25 a les 06 UTC al 25 a les 08 UTC
Visibilitat: 4000 m
Núvols disperses a una alçada de 1800 ft
Núvols disperses a una alçada de 2500 ft
Cel ennuvolat a una alçada de 10000 ft
calitja

TAF: VERC 242300Z 2500/2509 16004KT 2000 BR SCT020 SCT100 BECMG 2506/2508 4000 HZ SCT018 SCT025 BKN100

Observacions i pronòstics meteorològics de més de 4000 aeroports (METAR i TAF).

Les estacions disponibles són els punts grocs i vermells al mapa.

Posi el ratolí al punt desitjat per veure el nom de l'estació.

Feu clic per veure les observacions i els pronòstics meteorològics.

Per canviar el mapa: feu clic els botons verds amb una creu de color negre per apropar; al botó verd amb un guió per allunyar la imatge; o en les fletxes verdes per a mapes adjacents.


METAR-TAF: